sensor_id;sensor_type;location;lat;lon;timestamp;P1;durP1;ratioP1;P2;durP2;ratioP2
22449;SDS011;11392;57.390;-2.468;2023-11-21T00:00:16;4.43;;;0.95;;
22449;SDS011;11392;57.390;-2.468;2023-11-21T00:02:43;3.83;;;1.30;;
22449;SDS011;11392;57.390;-2.468;2023-11-21T00:05:12;5.50;;;2.28;;
22449;SDS011;11392;57.390;-2.468;2023-11-21T00:07:43;5.53;;;1.33;;
22449;SDS011;11392;57.390;-2.468;2023-11-21T00:10:10;2.33;;;0.90;;
22449;SDS011;11392;57.390;-2.468;2023-11-21T00:12:38;3.00;;;0.90;;
22449;SDS011;11392;57.390;-2.468;2023-11-21T00:15:08;3.25;;;1.17;;
22449;SDS011;11392;57.390;-2.468;2023-11-21T00:17:37;2.35;;;1.05;;
22449;SDS011;11392;57.390;-2.468;2023-11-21T00:20:05;5.18;;;1.08;;
22449;SDS011;11392;57.390;-2.468;2023-11-21T00:22:36;2.90;;;1.13;;
22449;SDS011;11392;57.390;-2.468;2023-11-21T00:25:03;2.45;;;1.20;;
22449;SDS011;11392;57.390;-2.468;2023-11-21T00:27:30;3.00;;;1.13;;
22449;SDS011;11392;57.390;-2.468;2023-11-21T00:29:57;5.30;;;1.42;;
22449;SDS011;11392;57.390;-2.468;2023-11-21T00:32:25;6.30;;;1.40;;
22449;SDS011;11392;57.390;-2.468;2023-11-21T00:34:52;6.95;;;2.17;;
22449;SDS011;11392;57.390;-2.468;2023-11-21T00:37:20;7.07;;;1.65;;
22449;SDS011;11392;57.390;-2.468;2023-11-21T00:39:48;6.47;;;1.98;;
22449;SDS011;11392;57.390;-2.468;2023-11-21T00:42:15;5.63;;;2.28;;
22449;SDS011;11392;57.390;-2.468;2023-11-21T00:44:42;9.35;;;3.03;;
22449;SDS011;11392;57.390;-2.468;2023-11-21T00:47:09;7.95;;;2.70;;
22449;SDS011;11392;57.390;-2.468;2023-11-21T00:49:36;7.00;;;3.20;;
22449;SDS011;11392;57.390;-2.468;2023-11-21T00:52:06;7.85;;;2.00;;
22449;SDS011;11392;57.390;-2.468;2023-11-21T00:54:33;4.53;;;1.75;;
22449;SDS011;11392;57.390;-2.468;2023-11-21T00:57:00;4.88;;;1.85;;
22449;SDS011;11392;57.390;-2.468;2023-11-21T00:59:27;7.30;;;1.80;;
22449;SDS011;11392;57.390;-2.468;2023-11-21T01:01:54;5.40;;;1.70;;
22449;SDS011;11392;57.390;-2.468;2023-11-21T01:04:22;7.50;;;1.80;;
22449;SDS011;11392;57.390;-2.468;2023-11-21T01:06:49;6.03;;;1.50;;
22449;SDS011;11392;57.390;-2.468;2023-11-21T01:09:16;6.20;;;1.23;;
22449;SDS011;11392;57.390;-2.468;2023-11-21T01:11:44;6.22;;;1.38;;
22449;SDS011;11392;57.390;-2.468;2023-11-21T01:14:12;8.85;;;1.38;;
22449;SDS011;11392;57.390;-2.468;2023-11-21T01:16:40;6.20;;;2.03;;
22449;SDS011;11392;57.390;-2.468;2023-11-21T01:19:07;1.48;;;1.08;;
22449;SDS011;11392;57.390;-2.468;2023-11-21T01:21:35;8.27;;;1.95;;
22449;SDS011;11392;57.390;-2.468;2023-11-21T01:24:03;5.78;;;1.33;;
22449;SDS011;11392;57.390;-2.468;2023-11-21T01:26:33;3.15;;;1.33;;
22449;SDS011;11392;57.390;-2.468;2023-11-21T01:29:01;4.03;;;1.02;;
22449;SDS011;11392;57.390;-2.468;2023-11-21T01:31:28;1.77;;;1.02;;
22449;SDS011;11392;57.390;-2.468;2023-11-21T01:33:56;7.38;;;1.60;;
22449;SDS011;11392;57.390;-2.468;2023-11-21T01:36:23;4.72;;;1.20;;
22449;SDS011;11392;57.390;-2.468;2023-11-21T01:39:00;1.38;;;0.75;;
22449;SDS011;11392;57.390;-2.468;2023-11-21T01:41:27;6.55;;;1.52;;
22449;SDS011;11392;57.390;-2.468;2023-11-21T01:43:55;3.65;;;1.13;;
22449;SDS011;11392;57.390;-2.468;2023-11-21T01:46:23;7.95;;;1.30;;
22449;SDS011;11392;57.390;-2.468;2023-11-21T01:48:50;2.90;;;1.63;;
22449;SDS011;11392;57.390;-2.468;2023-11-21T01:51:19;3.22;;;1.17;;
22449;SDS011;11392;57.390;-2.468;2023-11-21T01:53:46;2.10;;;1.15;;
22449;SDS011;11392;57.390;-2.468;2023-11-21T01:56:14;3.45;;;1.20;;
22449;SDS011;11392;57.390;-2.468;2023-11-21T01:58:41;4.00;;;1.20;;
22449;SDS011;11392;57.390;-2.468;2023-11-21T02:01:10;1.75;;;0.90;;
22449;SDS011;11392;57.390;-2.468;2023-11-21T02:03:37;2.45;;;0.80;;
22449;SDS011;11392;57.390;-2.468;2023-11-21T02:06:05;6.68;;;1.13;;
22449;SDS011;11392;57.390;-2.468;2023-11-21T02:08:32;5.72;;;0.98;;
22449;SDS011;11392;57.390;-2.468;2023-11-21T02:10:59;1.08;;;0.80;;
22449;SDS011;11392;57.390;-2.468;2023-11-21T02:13:26;5.95;;;1.25;;
22449;SDS011;11392;57.390;-2.468;2023-11-21T02:15:53;5.03;;;1.23;;
22449;SDS011;11392;57.390;-2.468;2023-11-21T02:18:20;4.55;;;0.77;;
22449;SDS011;11392;57.390;-2.468;2023-11-21T02:20:48;5.72;;;1.20;;
22449;SDS011;11392;57.390;-2.468;2023-11-21T02:23:15;6.18;;;2.17;;
22449;SDS011;11392;57.390;-2.468;2023-11-21T02:25:42;12.77;;;4.80;;
22449;SDS011;11392;57.390;-2.468;2023-11-21T02:28:10;13.38;;;5.60;;
22449;SDS011;11392;57.390;-2.468;2023-11-21T02:30:39;7.82;;;4.60;;
22449;SDS011;11392;57.390;-2.468;2023-11-21T02:33:06;9.60;;;3.50;;
22449;SDS011;11392;57.390;-2.468;2023-11-21T02:35:34;5.78;;;3.03;;
22449;SDS011;11392;57.390;-2.468;2023-11-21T02:38:01;7.88;;;3.08;;
22449;SDS011;11392;57.390;-2.468;2023-11-21T02:40:28;7.53;;;2.67;;
22449;SDS011;11392;57.390;-2.468;2023-11-21T02:42:56;7.03;;;2.83;;
22449;SDS011;11392;57.390;-2.468;2023-11-21T02:45:26;5.88;;;2.70;;
22449;SDS011;11392;57.390;-2.468;2023-11-21T02:47:53;5.28;;;1.95;;
22449;SDS011;11392;57.390;-2.468;2023-11-21T02:50:24;2.00;;;1.67;;
22449;SDS011;11392;57.390;-2.468;2023-11-21T02:52:51;3.90;;;1.52;;
22449;SDS011;11392;57.390;-2.468;2023-11-21T02:55:18;5.53;;;1.60;;
22449;SDS011;11392;57.390;-2.468;2023-11-21T02:57:46;3.67;;;0.93;;
22449;SDS011;11392;57.390;-2.468;2023-11-21T03:00:13;4.65;;;1.20;;
22449;SDS011;11392;57.390;-2.468;2023-11-21T03:02:41;2.28;;;1.08;;
22449;SDS011;11392;57.390;-2.468;2023-11-21T03:05:10;2.53;;;1.20;;
22449;SDS011;11392;57.390;-2.468;2023-11-21T03:07:37;1.80;;;0.93;;
22449;SDS011;11392;57.390;-2.468;2023-11-21T03:10:06;6.53;;;1.95;;
22449;SDS011;11392;57.390;-2.468;2023-11-21T03:12:38;5.03;;;1.20;;
22449;SDS011;11392;57.390;-2.468;2023-11-21T03:15:06;3.92;;;0.90;;
22449;SDS011;11392;57.390;-2.468;2023-11-21T03:17:33;9.23;;;3.85;;
22449;SDS011;11392;57.390;-2.468;2023-11-21T03:20:01;5.47;;;1.23;;
22449;SDS011;11392;57.390;-2.468;2023-11-21T03:22:30;2.47;;;1.35;;
22449;SDS011;11392;57.390;-2.468;2023-11-21T03:24:57;2.58;;;0.82;;
22449;SDS011;11392;57.390;-2.468;2023-11-21T03:27:25;1.27;;;0.70;;
22449;SDS011;11392;57.390;-2.468;2023-11-21T03:29:52;5.15;;;1.35;;
22449;SDS011;11392;57.390;-2.468;2023-11-21T03:32:21;3.50;;;1.17;;
22449;SDS011;11392;57.390;-2.468;2023-11-21T03:34:55;7.20;;;1.60;;
22449;SDS011;11392;57.390;-2.468;2023-11-21T03:37:25;3.22;;;1.17;;
22449;SDS011;11392;57.390;-2.468;2023-11-21T03:39:55;5.10;;;1.02;;
22449;SDS011;11392;57.390;-2.468;2023-11-21T03:42:23;1.85;;;0.80;;
22449;SDS011;11392;57.390;-2.468;2023-11-21T03:44:53;4.25;;;1.08;;
22449;SDS011;11392;57.390;-2.468;2023-11-21T03:47:20;7.80;;;3.47;;
22449;SDS011;11392;57.390;-2.468;2023-11-21T03:49:48;9.40;;;3.08;;
22449;SDS011;11392;57.390;-2.468;2023-11-21T03:52:15;3.90;;;3.03;;
22449;SDS011;11392;57.390;-2.468;2023-11-21T03:54:42;5.95;;;3.60;;
22449;SDS011;11392;57.390;-2.468;2023-11-21T03:57:10;7.93;;;4.03;;
22449;SDS011;11392;57.390;-2.468;2023-11-21T03:59:41;13.20;;;5.57;;
22449;SDS011;11392;57.390;-2.468;2023-11-21T04:02:08;13.50;;;6.38;;
22449;SDS011;11392;57.390;-2.468;2023-11-21T04:04:36;9.02;;;4.05;;
22449;SDS011;11392;57.390;-2.468;2023-11-21T04:07:04;5.15;;;2.60;;
22449;SDS011;11392;57.390;-2.468;2023-11-21T04:09:31;8.43;;;3.55;;
22449;SDS011;11392;57.390;-2.468;2023-11-21T04:11:59;5.97;;;1.65;;
22449;SDS011;11392;57.390;-2.468;2023-11-21T04:14:26;6.47;;;1.55;;
22449;SDS011;11392;57.390;-2.468;2023-11-21T04:16:53;3.33;;;1.23;;
22449;SDS011;11392;57.390;-2.468;2023-11-21T04:19:20;3.60;;;1.75;;
22449;SDS011;11392;57.390;-2.468;2023-11-21T04:21:48;2.28;;;0.85;;
22449;SDS011;11392;57.390;-2.468;2023-11-21T04:24:15;2.40;;;1.30;;
22449;SDS011;11392;57.390;-2.468;2023-11-21T04:26:43;5.03;;;1.25;;
22449;SDS011;11392;57.390;-2.468;2023-11-21T04:29:10;2.67;;;1.20;;
22449;SDS011;11392;57.390;-2.468;2023-11-21T04:31:37;4.20;;;1.20;;
22449;SDS011;11392;57.390;-2.468;2023-11-21T04:34:05;2.42;;;0.93;;
22449;SDS011;11392;57.390;-2.468;2023-11-21T04:36:32;6.32;;;1.40;;
22449;SDS011;11392;57.390;-2.468;2023-11-21T04:38:59;4.63;;;1.50;;
22449;SDS011;11392;57.390;-2.468;2023-11-21T04:41:26;2.85;;;1.20;;
22449;SDS011;11392;57.390;-2.468;2023-11-21T04:43:53;3.08;;;1.00;;
22449;SDS011;11392;57.390;-2.468;2023-11-21T04:46:20;3.10;;;1.30;;
22449;SDS011;11392;57.390;-2.468;2023-11-21T04:48:48;4.85;;;1.60;;
22449;SDS011;11392;57.390;-2.468;2023-11-21T04:51:15;6.28;;;1.38;;
22449;SDS011;11392;57.390;-2.468;2023-11-21T04:53:42;2.35;;;1.20;;
22449;SDS011;11392;57.390;-2.468;2023-11-21T04:56:09;4.22;;;1.42;;
22449;SDS011;11392;57.390;-2.468;2023-11-21T04:58:37;5.75;;;1.17;;
22449;SDS011;11392;57.390;-2.468;2023-11-21T05:01:07;3.00;;;1.13;;
22449;SDS011;11392;57.390;-2.468;2023-11-21T05:03:34;1.27;;;0.90;;
22449;SDS011;11392;57.390;-2.468;2023-11-21T05:06:02;3.05;;;1.52;;
22449;SDS011;11392;57.390;-2.468;2023-11-21T05:08:31;2.78;;;1.17;;
22449;SDS011;11392;57.390;-2.468;2023-11-21T05:10:58;5.55;;;1.35;;
22449;SDS011;11392;57.390;-2.468;2023-11-21T05:13:25;5.70;;;1.23;;
22449;SDS011;11392;57.390;-2.468;2023-11-21T05:15:54;6.88;;;1.75;;
22449;SDS011;11392;57.390;-2.468;2023-11-21T05:18:24;2.28;;;1.15;;
22449;SDS011;11392;57.390;-2.468;2023-11-21T05:20:53;3.70;;;1.00;;
22449;SDS011;11392;57.390;-2.468;2023-11-21T05:23:20;2.40;;;1.20;;
22449;SDS011;11392;57.390;-2.468;2023-11-21T05:25:48;4.85;;;2.08;;
22449;SDS011;11392;57.390;-2.468;2023-11-21T05:28:15;4.90;;;1.42;;
22449;SDS011;11392;57.390;-2.468;2023-11-21T05:30:41;4.68;;;1.23;;
22449;SDS011;11392;57.390;-2.468;2023-11-21T05:33:09;1.92;;;0.90;;
22449;SDS011;11392;57.390;-2.468;2023-11-21T05:35:36;2.13;;;1.33;;
22449;SDS011;11392;57.390;-2.468;2023-11-21T05:38:03;3.60;;;1.30;;
22449;SDS011;11392;57.390;-2.468;2023-11-21T05:40:31;1.02;;;0.80;;
22449;SDS011;11392;57.390;-2.468;2023-11-21T05:42:59;3.47;;;1.45;;
22449;SDS011;11392;57.390;-2.468;2023-11-21T05:45:26;3.08;;;0.95;;
22449;SDS011;11392;57.390;-2.468;2023-11-21T05:47:55;3.22;;;0.90;;
22449;SDS011;11392;57.390;-2.468;2023-11-21T05:50:22;1.75;;;0.90;;
22449;SDS011;11392;57.390;-2.468;2023-11-21T05:52:49;6.70;;;1.05;;
22449;SDS011;11392;57.390;-2.468;2023-11-21T05:55:17;2.53;;;1.02;;
22449;SDS011;11392;57.390;-2.468;2023-11-21T05:57:44;5.38;;;1.00;;
22449;SDS011;11392;57.390;-2.468;2023-11-21T06:00:12;2.53;;;0.85;;
22449;SDS011;11392;57.390;-2.468;2023-11-21T06:02:48;5.63;;;1.20;;
22449;SDS011;11392;57.390;-2.468;2023-11-21T06:05:22;4.75;;;0.95;;
22449;SDS011;11392;57.390;-2.468;2023-11-21T06:07:52;0.98;;;0.80;;
22449;SDS011;11392;57.390;-2.468;2023-11-21T06:10:21;4.20;;;1.13;;
22449;SDS011;11392;57.390;-2.468;2023-11-21T06:12:51;2.47;;;0.70;;
22449;SDS011;11392;57.390;-2.468;2023-11-21T06:15:19;2.90;;;1.00;;
22449;SDS011;11392;57.390;-2.468;2023-11-21T06:17:48;3.55;;;1.23;;
22449;SDS011;11392;57.390;-2.468;2023-11-21T06:20:21;2.90;;;1.25;;
22449;SDS011;11392;57.390;-2.468;2023-11-21T06:22:49;2.13;;;1.13;;
22449;SDS011;11392;57.390;-2.468;2023-11-21T06:25:17;8.18;;;1.58;;
22449;SDS011;11392;57.390;-2.468;2023-11-21T06:27:45;3.72;;;1.40;;
22449;SDS011;11392;57.390;-2.468;2023-11-21T06:30:16;5.85;;;1.10;;
22449;SDS011;11392;57.390;-2.468;2023-11-21T06:32:45;5.20;;;1.70;;
22449;SDS011;11392;57.390;-2.468;2023-11-21T06:35:13;4.97;;;1.25;;
22449;SDS011;11392;57.390;-2.468;2023-11-21T06:37:43;4.13;;;1.52;;
22449;SDS011;11392;57.390;-2.468;2023-11-21T06:40:18;6.85;;;1.40;;
22449;SDS011;11392;57.390;-2.468;2023-11-21T06:42:46;4.07;;;1.35;;
22449;SDS011;11392;57.390;-2.468;2023-11-21T06:45:14;6.10;;;1.90;;
22449;SDS011;11392;57.390;-2.468;2023-11-21T06:47:42;4.07;;;1.63;;
22449;SDS011;11392;57.390;-2.468;2023-11-21T06:50:09;4.78;;;2.03;;
22449;SDS011;11392;57.390;-2.468;2023-11-21T06:52:37;7.10;;;2.30;;
22449;SDS011;11392;57.390;-2.468;2023-11-21T06:55:05;2.65;;;1.25;;
22449;SDS011;11392;57.390;-2.468;2023-11-21T06:57:35;3.72;;;1.70;;
22449;SDS011;11392;57.390;-2.468;2023-11-21T07:00:02;6.88;;;1.80;;
22449;SDS011;11392;57.390;-2.468;2023-11-21T07:02:30;3.75;;;1.30;;
22449;SDS011;11392;57.390;-2.468;2023-11-21T07:04:57;7.20;;;2.03;;
22449;SDS011;11392;57.390;-2.468;2023-11-21T07:07:24;8.77;;;2.42;;
22449;SDS011;11392;57.390;-2.468;2023-11-21T07:09:51;6.65;;;1.77;;
22449;SDS011;11392;57.390;-2.468;2023-11-21T07:12:18;6.50;;;1.60;;
22449;SDS011;11392;57.390;-2.468;2023-11-21T07:14:45;6.20;;;2.28;;
22449;SDS011;11392;57.390;-2.468;2023-11-21T07:17:13;7.07;;;2.03;;
22449;SDS011;11392;57.390;-2.468;2023-11-21T07:19:40;8.32;;;1.85;;
22449;SDS011;11392;57.390;-2.468;2023-11-21T07:22:08;7.60;;;1.63;;
22449;SDS011;11392;57.390;-2.468;2023-11-21T07:24:35;4.50;;;1.73;;
22449;SDS011;11392;57.390;-2.468;2023-11-21T07:27:03;7.47;;;1.77;;
22449;SDS011;11392;57.390;-2.468;2023-11-21T07:29:30;5.85;;;1.65;;
22449;SDS011;11392;57.390;-2.468;2023-11-21T07:31:57;6.15;;;1.75;;
22449;SDS011;11392;57.390;-2.468;2023-11-21T07:34:25;11.70;;;2.10;;
22449;SDS011;11392;57.390;-2.468;2023-11-21T07:36:52;5.53;;;1.60;;
22449;SDS011;11392;57.390;-2.468;2023-11-21T07:39:19;5.22;;;1.52;;
22449;SDS011;11392;57.390;-2.468;2023-11-21T07:41:47;9.70;;;2.72;;
22449;SDS011;11392;57.390;-2.468;2023-11-21T07:44:17;2.70;;;1.50;;
22449;SDS011;11392;57.390;-2.468;2023-11-21T07:46:44;2.88;;;1.17;;
22449;SDS011;11392;57.390;-2.468;2023-11-21T07:49:11;4.22;;;1.40;;
22449;SDS011;11392;57.390;-2.468;2023-11-21T07:51:43;4.35;;;1.70;;
22449;SDS011;11392;57.390;-2.468;2023-11-21T07:54:10;3.50;;;1.42;;
22449;SDS011;11392;57.390;-2.468;2023-11-21T07:56:37;5.85;;;1.77;;
22449;SDS011;11392;57.390;-2.468;2023-11-21T07:59:04;6.70;;;1.50;;
22449;SDS011;11392;57.390;-2.468;2023-11-21T08:01:32;2.60;;;1.63;;
22449;SDS011;11392;57.390;-2.468;2023-11-21T08:03:59;4.45;;;1.55;;
22449;SDS011;11392;57.390;-2.468;2023-11-21T08:06:30;3.67;;;1.20;;
22449;SDS011;11392;57.390;-2.468;2023-11-21T08:08:59;3.72;;;1.42;;
22449;SDS011;11392;57.390;-2.468;2023-11-21T08:11:26;6.68;;;2.10;;
22449;SDS011;11392;57.390;-2.468;2023-11-21T08:13:56;3.58;;;1.27;;
22449;SDS011;11392;57.390;-2.468;2023-11-21T08:16:23;11.27;;;3.17;;
22449;SDS011;11392;57.390;-2.468;2023-11-21T08:18:51;5.65;;;1.27;;
22449;SDS011;11392;57.390;-2.468;2023-11-21T08:21:18;4.75;;;1.55;;
22449;SDS011;11392;57.390;-2.468;2023-11-21T08:23:45;5.65;;;1.40;;
22449;SDS011;11392;57.390;-2.468;2023-11-21T08:26:15;2.38;;;1.15;;
22449;SDS011;11392;57.390;-2.468;2023-11-21T08:28:43;1.77;;;1.00;;
22449;SDS011;11392;57.390;-2.468;2023-11-21T08:31:10;4.07;;;1.13;;
22449;SDS011;11392;57.390;-2.468;2023-11-21T08:33:40;7.65;;;2.13;;
22449;SDS011;11392;57.390;-2.468;2023-11-21T08:36:10;7.30;;;1.75;;
22449;SDS011;11392;57.390;-2.468;2023-11-21T08:38:38;3.72;;;1.45;;
22449;SDS011;11392;57.390;-2.468;2023-11-21T08:41:07;11.63;;;1.80;;
22449;SDS011;11392;57.390;-2.468;2023-11-21T08:43:35;6.78;;;1.75;;
22449;SDS011;11392;57.390;-2.468;2023-11-21T08:46:06;4.03;;;1.05;;
22449;SDS011;11392;57.390;-2.468;2023-11-21T08:48:36;1.85;;;1.10;;
22449;SDS011;11392;57.390;-2.468;2023-11-21T08:51:03;2.70;;;1.20;;
22449;SDS011;11392;57.390;-2.468;2023-11-21T08:53:31;2.08;;;0.90;;
22449;SDS011;11392;57.390;-2.468;2023-11-21T08:55:59;2.30;;;1.10;;
22449;SDS011;11392;57.390;-2.468;2023-11-21T08:58:26;3.40;;;1.00;;
22449;SDS011;11392;57.390;-2.468;2023-11-21T09:00:54;1.90;;;0.80;;
22449;SDS011;11392;57.390;-2.468;2023-11-21T09:03:21;1.35;;;0.85;;
22449;SDS011;11392;57.390;-2.468;2023-11-21T09:05:48;2.00;;;0.88;;
22449;SDS011;11392;57.390;-2.468;2023-11-21T09:08:15;1.27;;;0.90;;
22449;SDS011;11392;57.390;-2.468;2023-11-21T09:10:42;2.83;;;1.17;;
22449;SDS011;11392;57.390;-2.468;2023-11-21T09:13:13;2.80;;;1.00;;
22449;SDS011;11392;57.390;-2.468;2023-11-21T09:15:43;5.70;;;1.58;;
22449;SDS011;11392;57.390;-2.468;2023-11-21T09:18:15;2.88;;;1.13;;
22449;SDS011;11392;57.390;-2.468;2023-11-21T09:20:42;1.85;;;1.02;;
22449;SDS011;11392;57.390;-2.468;2023-11-21T09:23:10;7.05;;;1.50;;
22449;SDS011;11392;57.390;-2.468;2023-11-21T09:25:38;5.28;;;1.10;;
22449;SDS011;11392;57.390;-2.468;2023-11-21T09:28:05;3.63;;;1.50;;
22449;SDS011;11392;57.390;-2.468;2023-11-21T09:30:35;5.80;;;1.33;;
22449;SDS011;11392;57.390;-2.468;2023-11-21T09:33:03;4.60;;;1.33;;
22449;SDS011;11392;57.390;-2.468;2023-11-21T09:35:37;10.70;;;1.75;;
22449;SDS011;11392;57.390;-2.468;2023-11-21T09:38:04;3.72;;;1.25;;
22449;SDS011;11392;57.390;-2.468;2023-11-21T09:40:38;1.30;;;0.90;;
22449;SDS011;11392;57.390;-2.468;2023-11-21T09:43:09;4.40;;;1.20;;
22449;SDS011;11392;57.390;-2.468;2023-11-21T09:45:48;3.40;;;1.05;;
22449;SDS011;11392;57.390;-2.468;2023-11-21T09:48:25;2.35;;;0.82;;
22449;SDS011;11392;57.390;-2.468;2023-11-21T09:50:53;3.50;;;1.10;;
22449;SDS011;11392;57.390;-2.468;2023-11-21T09:53:21;3.47;;;1.65;;
22449;SDS011;11392;57.390;-2.468;2023-11-21T09:55:51;5.60;;;1.45;;
22449;SDS011;11392;57.390;-2.468;2023-11-21T09:58:20;3.53;;;1.10;;
22449;SDS011;11392;57.390;-2.468;2023-11-21T10:00:53;3.30;;;1.08;;
22449;SDS011;11392;57.390;-2.468;2023-11-21T10:03:22;3.88;;;1.10;;
22449;SDS011;11392;57.390;-2.468;2023-11-21T10:05:50;5.97;;;1.25;;
22449;SDS011;11392;57.390;-2.468;2023-11-21T10:08:19;4.30;;;1.20;;
22449;SDS011;11392;57.390;-2.468;2023-11-21T10:10:51;2.53;;;1.08;;
22449;SDS011;11392;57.390;-2.468;2023-11-21T10:13:21;0.93;;;0.80;;
22449;SDS011;11392;57.390;-2.468;2023-11-21T10:15:49;3.85;;;1.08;;
22449;SDS011;11392;57.390;-2.468;2023-11-21T10:18:18;3.97;;;1.17;;
22449;SDS011;11392;57.390;-2.468;2023-11-21T10:20:45;2.28;;;1.25;;
22449;SDS011;11392;57.390;-2.468;2023-11-21T10:23:20;2.33;;;0.90;;
22449;SDS011;11392;57.390;-2.468;2023-11-21T10:25:50;5.68;;;1.23;;
22449;SDS011;11392;57.390;-2.468;2023-11-21T10:28:19;2.15;;;1.15;;
22449;SDS011;11392;57.390;-2.468;2023-11-21T10:30:47;2.95;;;0.93;;
22449;SDS011;11392;57.390;-2.468;2023-11-21T10:33:15;3.92;;;0.88;;
22449;SDS011;11392;57.390;-2.468;2023-11-21T10:35:45;4.57;;;1.10;;
22449;SDS011;11392;57.390;-2.468;2023-11-21T10:38:17;4.68;;;1.33;;
22449;SDS011;11392;57.390;-2.468;2023-11-21T10:40:50;4.95;;;1.30;;
22449;SDS011;11392;57.390;-2.468;2023-11-21T10:43:19;0.93;;;0.73;;
22449;SDS011;11392;57.390;-2.468;2023-11-21T10:45:46;4.50;;;0.98;;
22449;SDS011;11392;57.390;-2.468;2023-11-21T10:48:14;2.33;;;0.85;;
22449;SDS011;11392;57.390;-2.468;2023-11-21T10:50:45;3.13;;;1.17;;
22449;SDS011;11392;57.390;-2.468;2023-11-21T10:53:13;3.42;;;1.00;;
22449;SDS011;11392;57.390;-2.468;2023-11-21T10:55:42;1.23;;;0.98;;
22449;SDS011;11392;57.390;-2.468;2023-11-21T10:58:13;3.00;;;1.10;;
22449;SDS011;11392;57.390;-2.468;2023-11-21T11:00:41;2.45;;;0.77;;
22449;SDS011;11392;57.390;-2.468;2023-11-21T11:03:11;4.78;;;0.90;;
22449;SDS011;11392;57.390;-2.468;2023-11-21T11:05:43;4.45;;;0.90;;
22449;SDS011;11392;57.390;-2.468;2023-11-21T11:08:20;4.60;;;1.83;;
22449;SDS011;11392;57.390;-2.468;2023-11-21T11:10:54;0.95;;;0.85;;
22449;SDS011;11392;57.390;-2.468;2023-11-21T11:13:22;1.95;;;0.80;;
22449;SDS011;11392;57.390;-2.468;2023-11-21T11:15:51;2.22;;;0.93;;
22449;SDS011;11392;57.390;-2.468;2023-11-21T11:18:26;3.75;;;0.77;;
22449;SDS011;11392;57.390;-2.468;2023-11-21T11:20:53;0.65;;;0.65;;
22449;SDS011;11392;57.390;-2.468;2023-11-21T11:26:12;2.45;;;0.88;;
22449;SDS011;11392;57.390;-2.468;2023-11-21T11:29:08;5.30;;;1.00;;
22449;SDS011;11392;57.390;-2.468;2023-11-21T11:34:40;1.95;;;0.90;;
22449;SDS011;11392;57.390;-2.468;2023-11-21T11:37:12;1.95;;;0.90;;
22449;SDS011;11392;57.390;-2.468;2023-11-21T11:39:41;4.72;;;0.90;;
22449;SDS011;11392;57.390;-2.468;2023-11-21T11:42:13;2.58;;;0.82;;
22449;SDS011;11392;57.390;-2.468;2023-11-21T11:52:38;2.50;;;0.90;;
22449;SDS011;11392;57.390;-2.468;2023-11-21T11:55:10;1.08;;;0.73;;
22449;SDS011;11392;57.390;-2.468;2023-11-21T11:57:42;5.55;;;1.55;;
22449;SDS011;11392;57.390;-2.468;2023-11-21T12:02:48;3.92;;;1.73;;
22449;SDS011;11392;57.390;-2.468;2023-11-21T12:05:19;3.60;;;1.45;;
22449;SDS011;11392;57.390;-2.468;2023-11-21T12:10:18;4.20;;;1.90;;
22449;SDS011;11392;57.390;-2.468;2023-11-21T12:12:47;4.03;;;2.13;;
22449;SDS011;11392;57.390;-2.468;2023-11-21T12:15:16;4.95;;;1.98;;
22449;SDS011;11392;57.390;-2.468;2023-11-21T12:17:43;6.18;;;1.65;;
22449;SDS011;11392;57.390;-2.468;2023-11-21T12:20:15;4.25;;;2.20;;
22449;SDS011;11392;57.390;-2.468;2023-11-21T12:25:26;7.18;;;3.40;;
22449;SDS011;11392;57.390;-2.468;2023-11-21T12:28:02;4.60;;;2.95;;
22449;SDS011;11392;57.390;-2.468;2023-11-21T12:30:30;6.07;;;2.53;;
22449;SDS011;11392;57.390;-2.468;2023-11-21T12:32:59;3.30;;;2.03;;
22449;SDS011;11392;57.390;-2.468;2023-11-21T12:35:28;2.25;;;1.45;;
22449;SDS011;11392;57.390;-2.468;2023-11-21T12:37:57;2.13;;;1.30;;
22449;SDS011;11392;57.390;-2.468;2023-11-21T12:40:25;11.07;;;1.52;;
22449;SDS011;11392;57.390;-2.468;2023-11-21T12:42:53;1.92;;;1.20;;
22449;SDS011;11392;57.390;-2.468;2023-11-21T12:45:26;1.90;;;1.02;;
22449;SDS011;11392;57.390;-2.468;2023-11-21T12:47:59;2.50;;;0.80;;
22449;SDS011;11392;57.390;-2.468;2023-11-21T12:50:30;2.95;;;0.80;;
22449;SDS011;11392;57.390;-2.468;2023-11-21T12:53:02;2.63;;;0.80;;
22449;SDS011;11392;57.390;-2.468;2023-11-21T12:55:32;3.53;;;0.90;;
22449;SDS011;11392;57.390;-2.468;2023-11-21T12:58:08;3.08;;;0.80;;
22449;SDS011;11392;57.390;-2.468;2023-11-21T13:03:13;3.25;;;0.90;;
22449;SDS011;11392;57.390;-2.468;2023-11-21T13:05:46;4.65;;;1.50;;
22449;SDS011;11392;57.390;-2.468;2023-11-21T13:08:21;4.55;;;0.85;;
22449;SDS011;11392;57.390;-2.468;2023-11-21T13:10:54;0.70;;;0.60;;
22449;SDS011;11392;57.390;-2.468;2023-11-21T13:13:24;1.05;;;0.70;;
22449;SDS011;11392;57.390;-2.468;2023-11-21T13:15:56;2.58;;;0.90;;
22449;SDS011;11392;57.390;-2.468;2023-11-21T13:18:27;2.78;;;1.00;;
22449;SDS011;11392;57.390;-2.468;2023-11-21T13:20:56;2.28;;;0.90;;
22449;SDS011;11392;57.390;-2.468;2023-11-21T13:23:26;2.13;;;0.77;;
22449;SDS011;11392;57.390;-2.468;2023-11-21T13:25:57;5.68;;;2.05;;
22449;SDS011;11392;57.390;-2.468;2023-11-21T13:28:32;1.63;;;0.80;;
22449;SDS011;11392;57.390;-2.468;2023-11-21T13:31:01;1.38;;;0.80;;
22449;SDS011;11392;57.390;-2.468;2023-11-21T13:33:37;2.85;;;0.90;;
22449;SDS011;11392;57.390;-2.468;2023-11-21T13:36:05;1.92;;;0.60;;
22449;SDS011;11392;57.390;-2.468;2023-11-21T13:38:35;1.83;;;0.90;;
22449;SDS011;11392;57.390;-2.468;2023-11-21T13:41:04;2.25;;;0.90;;
22449;SDS011;11392;57.390;-2.468;2023-11-21T13:43:34;2.45;;;0.98;;
22449;SDS011;11392;57.390;-2.468;2023-11-21T13:46:03;1.60;;;0.82;;
22449;SDS011;11392;57.390;-2.468;2023-11-21T13:48:40;3.80;;;1.02;;
22449;SDS011;11392;57.390;-2.468;2023-11-21T13:51:09;0.90;;;0.60;;
22449;SDS011;11392;57.390;-2.468;2023-11-21T13:53:44;1.45;;;1.15;;
22449;SDS011;11392;57.390;-2.468;2023-11-21T13:56:14;2.63;;;0.70;;
22449;SDS011;11392;57.390;-2.468;2023-11-21T13:58:46;3.55;;;0.93;;
22449;SDS011;11392;57.390;-2.468;2023-11-21T14:01:18;2.97;;;1.38;;
22449;SDS011;11392;57.390;-2.468;2023-11-21T14:03:57;6.15;;;2.10;;
22449;SDS011;11392;57.390;-2.468;2023-11-21T14:06:43;4.97;;;1.80;;
22449;SDS011;11392;57.390;-2.468;2023-11-21T14:09:16;2.58;;;1.40;;
22449;SDS011;11392;57.390;-2.468;2023-11-21T14:11:52;5.68;;;2.15;;
22449;SDS011;11392;57.390;-2.468;2023-11-21T14:14:25;1.80;;;1.27;;
22449;SDS011;11392;57.390;-2.468;2023-11-21T14:16:54;3.10;;;1.42;;
22449;SDS011;11392;57.390;-2.468;2023-11-21T14:19:22;2.95;;;1.60;;
22449;SDS011;11392;57.390;-2.468;2023-11-21T14:21:53;1.95;;;1.38;;
22449;SDS011;11392;57.390;-2.468;2023-11-21T14:24:21;3.45;;;1.30;;
22449;SDS011;11392;57.390;-2.468;2023-11-21T14:26:50;5.05;;;1.50;;
22449;SDS011;11392;57.390;-2.468;2023-11-21T14:29:17;3.53;;;1.67;;
22449;SDS011;11392;57.390;-2.468;2023-11-21T14:31:47;2.72;;;1.23;;
22449;SDS011;11392;57.390;-2.468;2023-11-21T14:34:14;2.58;;;1.05;;
22449;SDS011;11392;57.390;-2.468;2023-11-21T14:36:46;1.88;;;1.35;;
22449;SDS011;11392;57.390;-2.468;2023-11-21T14:39:15;3.35;;;1.15;;
22449;SDS011;11392;57.390;-2.468;2023-11-21T14:41:50;1.65;;;0.80;;
22449;SDS011;11392;57.390;-2.468;2023-11-21T14:44:19;2.05;;;1.35;;
22449;SDS011;11392;57.390;-2.468;2023-11-21T14:46:50;4.00;;;1.10;;
22449;SDS011;11392;57.390;-2.468;2023-11-21T14:49:18;1.63;;;1.00;;
22449;SDS011;11392;57.390;-2.468;2023-11-21T14:51:46;2.83;;;0.90;;
22449;SDS011;11392;57.390;-2.468;2023-11-21T14:54:27;3.35;;;1.33;;
22449;SDS011;11392;57.390;-2.468;2023-11-21T14:57:13;0.60;;;0.60;;
22449;SDS011;11392;57.390;-2.468;2023-11-21T14:59:45;4.05;;;0.90;;
22449;SDS011;11392;57.390;-2.468;2023-11-21T15:02:17;3.33;;;0.93;;
22449;SDS011;11392;57.390;-2.468;2023-11-21T15:04:49;1.98;;;0.85;;
22449;SDS011;11392;57.390;-2.468;2023-11-21T15:07:25;2.35;;;1.05;;